sensor_id;sensor_type;location;lat;lon;timestamp;pressure;altitude;pressure_sealevel;temperature;humidity
27144;BME280;14672;50.250;8.312;2023-02-18T00:01:12;99535.38;;;14.44;67.54
27144;BME280;14672;50.250;8.312;2023-02-18T00:03:38;99540.13;;;14.47;67.50
27144;BME280;14672;50.250;8.312;2023-02-18T00:06:18;99535.88;;;14.30;67.64
27144;BME280;14672;50.250;8.312;2023-02-18T00:08:44;99544.69;;;14.35;67.80
27144;BME280;14672;50.250;8.312;2023-02-18T00:11:11;99534.38;;;14.38;67.72
27144;BME280;14672;50.250;8.312;2023-02-18T00:13:37;99529.94;;;14.37;67.67
27144;BME280;14672;50.250;8.312;2023-02-18T00:16:07;99530.44;;;14.44;67.69
27144;BME280;14672;50.250;8.312;2023-02-18T00:18:33;99533.47;;;14.41;67.73
27144;BME280;14672;50.250;8.312;2023-02-18T00:20:59;99552.00;;;14.36;67.38
27144;BME280;14672;50.250;8.312;2023-02-18T00:23:25;99549.72;;;14.31;67.33
27144;BME280;14672;50.250;8.312;2023-02-18T00:26:13;99555.38;;;14.22;67.33
27144;BME280;14672;50.250;8.312;2023-02-18T00:28:40;99554.56;;;14.22;67.72
27144;BME280;14672;50.250;8.312;2023-02-18T00:31:16;99551.06;;;14.18;67.57
27144;BME280;14672;50.250;8.312;2023-02-18T00:33:43;99555.38;;;14.22;67.31
27144;BME280;14672;50.250;8.312;2023-02-18T00:36:14;99545.34;;;14.18;67.59
27144;BME280;14672;50.250;8.312;2023-02-18T00:38:52;99541.44;;;14.24;67.67
27144;BME280;14672;50.250;8.312;2023-02-18T00:41:20;99539.50;;;14.21;67.80
27144;BME280;14672;50.250;8.312;2023-02-18T00:43:46;99554.72;;;14.18;68.21
27144;BME280;14672;50.250;8.312;2023-02-18T00:46:12;99538.84;;;14.17;67.83
27144;BME280;14672;50.250;8.312;2023-02-18T00:48:38;99549.47;;;14.17;67.52
27144;BME280;14672;50.250;8.312;2023-02-18T00:51:05;99554.00;;;14.05;67.54
27144;BME280;14672;50.250;8.312;2023-02-18T00:53:32;99552.66;;;14.19;67.14
27144;BME280;14672;50.250;8.312;2023-02-18T00:55:58;99543.50;;;14.02;67.30
27144;BME280;14672;50.250;8.312;2023-02-18T00:58:25;99543.13;;;14.13;67.21
27144;BME280;14672;50.250;8.312;2023-02-18T01:00:51;99533.13;;;14.17;67.13
27144;BME280;14672;50.250;8.312;2023-02-18T01:03:17;99537.78;;;14.24;67.14
27144;BME280;14672;50.250;8.312;2023-02-18T01:05:44;99532.13;;;14.33;67.23
27144;BME280;14672;50.250;8.312;2023-02-18T01:08:11;99529.50;;;14.26;66.97
27144;BME280;14672;50.250;8.312;2023-02-18T01:10:42;99535.56;;;14.28;66.89
27144;BME280;14672;50.250;8.312;2023-02-18T01:13:09;99529.38;;;14.29;66.67
27144;BME280;14672;50.250;8.312;2023-02-18T01:15:38;99542.09;;;14.28;66.73
27144;BME280;14672;50.250;8.312;2023-02-18T01:18:04;99536.09;;;14.13;67.00
27144;BME280;14672;50.250;8.312;2023-02-18T01:20:33;99538.50;;;14.15;67.14
27144;BME280;14672;50.250;8.312;2023-02-18T01:22:59;99532.59;;;14.09;66.69
27144;BME280;14672;50.250;8.312;2023-02-18T01:25:25;99528.69;;;14.16;66.88
27144;BME280;14672;50.250;8.312;2023-02-18T01:27:50;99530.41;;;14.13;66.69
27144;BME280;14672;50.250;8.312;2023-02-18T01:30:17;99531.84;;;14.18;66.98
27144;BME280;14672;50.250;8.312;2023-02-18T01:32:44;99533.53;;;14.06;67.62
27144;BME280;14672;50.250;8.312;2023-02-18T01:35:13;99521.78;;;14.04;67.89
27144;BME280;14672;50.250;8.312;2023-02-18T01:37:39;99518.94;;;14.04;68.50
27144;BME280;14672;50.250;8.312;2023-02-18T01:40:08;99522.38;;;13.99;69.69
27144;BME280;14672;50.250;8.312;2023-02-18T01:42:35;99515.06;;;13.98;69.88
27144;BME280;14672;50.250;8.312;2023-02-18T01:48:14;99515.44;;;14.09;69.84
27144;BME280;14672;50.250;8.312;2023-02-18T01:50:55;99512.22;;;13.98;69.99
27144;BME280;14672;50.250;8.312;2023-02-18T01:53:29;99509.34;;;13.98;70.48
27144;BME280;14672;50.250;8.312;2023-02-18T01:55:57;99509.06;;;14.05;69.67
27144;BME280;14672;50.250;8.312;2023-02-18T01:58:24;99509.56;;;14.04;69.91
27144;BME280;14672;50.250;8.312;2023-02-18T02:00:50;99508.31;;;14.05;69.65
27144;BME280;14672;50.250;8.312;2023-02-18T02:03:15;99498.13;;;14.04;69.89
27144;BME280;14672;50.250;8.312;2023-02-18T02:05:41;99493.69;;;14.03;70.06
27144;BME280;14672;50.250;8.312;2023-02-18T02:08:08;99498.31;;;14.09;69.91
27144;BME280;14672;50.250;8.312;2023-02-18T02:14:05;99497.41;;;13.91;70.14
27144;BME280;14672;50.250;8.312;2023-02-18T02:16:54;99509.03;;;13.96;70.11
27144;BME280;14672;50.250;8.312;2023-02-18T02:20:12;99490.16;;;13.99;69.36
27144;BME280;14672;50.250;8.312;2023-02-18T02:32:50;99473.75;;;13.90;69.46
27144;BME280;14672;50.250;8.312;2023-02-18T02:35:28;99475.41;;;14.00;69.14
27144;BME280;14672;50.250;8.312;2023-02-18T02:43:50;99472.25;;;13.77;69.46
27144;BME280;14672;50.250;8.312;2023-02-18T02:49:27;99467.03;;;14.06;68.67
27144;BME280;14672;50.250;8.312;2023-02-18T02:52:30;99471.75;;;14.00;68.87
27144;BME280;14672;50.250;8.312;2023-02-18T02:54:54;99472.88;;;14.02;67.98
27144;BME280;14672;50.250;8.312;2023-02-18T03:00:00;99476.38;;;14.06;67.92
27144;BME280;14672;50.250;8.312;2023-02-18T03:08:11;99470.53;;;14.10;67.74
27144;BME280;14672;50.250;8.312;2023-02-18T03:11:05;99458.31;;;14.09;68.33
27144;BME280;14672;50.250;8.312;2023-02-18T03:19:34;99447.66;;;14.10;68.13
27144;BME280;14672;50.250;8.312;2023-02-18T03:22:26;99448.63;;;14.07;68.26
27144;BME280;14672;50.250;8.312;2023-02-18T03:24:55;99456.72;;;14.08;68.23
27144;BME280;14672;50.250;8.312;2023-02-18T03:27:38;99454.19;;;14.10;68.31
27144;BME280;14672;50.250;8.312;2023-02-18T03:30:32;99453.13;;;14.17;67.71
27144;BME280;14672;50.250;8.312;2023-02-18T03:33:04;99457.19;;;14.07;68.69
27144;BME280;14672;50.250;8.312;2023-02-18T03:35:32;99455.59;;;14.06;68.48
27144;BME280;14672;50.250;8.312;2023-02-18T03:40:48;99453.88;;;14.08;68.43
27144;BME280;14672;50.250;8.312;2023-02-18T03:43:14;99446.88;;;14.09;68.87
27144;BME280;14672;50.250;8.312;2023-02-18T03:45:40;99449.28;;;14.11;68.93
27144;BME280;14672;50.250;8.312;2023-02-18T03:48:06;99436.09;;;14.13;68.86
27144;BME280;14672;50.250;8.312;2023-02-18T03:50:32;99441.03;;;14.13;68.82
27144;BME280;14672;50.250;8.312;2023-02-18T03:52:57;99435.44;;;14.09;69.08
27144;BME280;14672;50.250;8.312;2023-02-18T03:55:23;99427.22;;;14.11;68.74
27144;BME280;14672;50.250;8.312;2023-02-18T03:57:49;99436.59;;;14.12;68.96
27144;BME280;14672;50.250;8.312;2023-02-18T04:00:15;99423.91;;;14.13;69.05
27144;BME280;14672;50.250;8.312;2023-02-18T04:02:41;99425.63;;;14.10;69.46
27144;BME280;14672;50.250;8.312;2023-02-18T04:05:08;99417.69;;;14.15;69.25
27144;BME280;14672;50.250;8.312;2023-02-18T04:07:33;99421.50;;;14.11;68.99
27144;BME280;14672;50.250;8.312;2023-02-18T04:09:59;99420.47;;;13.96;69.67
27144;BME280;14672;50.250;8.312;2023-02-18T04:12:25;99418.44;;;14.06;69.26
27144;BME280;14672;50.250;8.312;2023-02-18T04:14:51;99421.66;;;14.08;69.68
27144;BME280;14672;50.250;8.312;2023-02-18T04:17:17;99416.06;;;14.04;69.32
27144;BME280;14672;50.250;8.312;2023-02-18T04:19:43;99427.97;;;14.03;69.47
27144;BME280;14672;50.250;8.312;2023-02-18T04:22:08;99417.28;;;13.94;70.31
27144;BME280;14672;50.250;8.312;2023-02-18T04:24:34;99416.69;;;13.99;69.54
27144;BME280;14672;50.250;8.312;2023-02-18T04:27:00;99411.00;;;14.08;69.48
27144;BME280;14672;50.250;8.312;2023-02-18T04:29:26;99413.22;;;14.04;69.68
27144;BME280;14672;50.250;8.312;2023-02-18T04:31:51;99409.22;;;14.02;69.87
27144;BME280;14672;50.250;8.312;2023-02-18T04:34:17;99403.06;;;14.03;69.86
27144;BME280;14672;50.250;8.312;2023-02-18T04:36:43;99404.16;;;13.97;70.29
27144;BME280;14672;50.250;8.312;2023-02-18T04:39:09;99409.38;;;13.98;69.76
27144;BME280;14672;50.250;8.312;2023-02-18T04:41:34;99403.34;;;13.96;70.06
27144;BME280;14672;50.250;8.312;2023-02-18T04:44:00;99404.44;;;13.99;70.05
27144;BME280;14672;50.250;8.312;2023-02-18T04:46:26;99404.78;;;14.01;69.71
27144;BME280;14672;50.250;8.312;2023-02-18T04:48:52;99401.41;;;13.93;69.84
27144;BME280;14672;50.250;8.312;2023-02-18T04:51:18;99385.25;;;13.99;69.63
27144;BME280;14672;50.250;8.312;2023-02-18T04:53:44;99379.41;;;14.03;69.33
27144;BME280;14672;50.250;8.312;2023-02-18T04:56:10;99384.25;;;13.93;69.24
27144;BME280;14672;50.250;8.312;2023-02-18T04:58:36;99379.19;;;13.88;69.58
27144;BME280;14672;50.250;8.312;2023-02-18T05:01:03;99373.94;;;13.87;69.33
27144;BME280;14672;50.250;8.312;2023-02-18T05:03:30;99378.44;;;13.97;69.04
27144;BME280;14672;50.250;8.312;2023-02-18T05:05:57;99375.56;;;13.97;69.32
27144;BME280;14672;50.250;8.312;2023-02-18T05:08:23;99373.50;;;13.97;69.40
27144;BME280;14672;50.250;8.312;2023-02-18T05:10:49;99378.09;;;13.95;70.16
27144;BME280;14672;50.250;8.312;2023-02-18T05:13:15;99374.59;;;13.91;69.82
27144;BME280;14672;50.250;8.312;2023-02-18T05:15:41;99369.97;;;13.93;70.36
27144;BME280;14672;50.250;8.312;2023-02-18T05:18:06;99360.00;;;13.98;70.07
27144;BME280;14672;50.250;8.312;2023-02-18T05:20:33;99355.59;;;13.97;70.34
27144;BME280;14672;50.250;8.312;2023-02-18T05:22:59;99356.19;;;13.92;70.67
27144;BME280;14672;50.250;8.312;2023-02-18T05:25:25;99356.03;;;13.95;70.35
27144;BME280;14672;50.250;8.312;2023-02-18T05:27:51;99347.94;;;13.94;70.55
27144;BME280;14672;50.250;8.312;2023-02-18T05:30:17;99348.13;;;13.99;70.38
27144;BME280;14672;50.250;8.312;2023-02-18T05:32:43;99339.94;;;13.80;70.99
27144;BME280;14672;50.250;8.312;2023-02-18T05:35:09;99345.41;;;13.96;70.49
27144;BME280;14672;50.250;8.312;2023-02-18T05:37:34;99346.97;;;13.88;70.52
27144;BME280;14672;50.250;8.312;2023-02-18T05:40:00;99336.28;;;13.79;71.42
27144;BME280;14672;50.250;8.312;2023-02-18T05:42:26;99332.03;;;13.84;71.01
27144;BME280;14672;50.250;8.312;2023-02-18T05:44:52;99331.88;;;13.87;70.93
27144;BME280;14672;50.250;8.312;2023-02-18T05:47:18;99329.19;;;13.84;71.38
27144;BME280;14672;50.250;8.312;2023-02-18T05:49:43;99331.34;;;13.71;71.10
27144;BME280;14672;50.250;8.312;2023-02-18T05:52:10;99334.78;;;13.65;71.32
27144;BME280;14672;50.250;8.312;2023-02-18T05:54:37;99323.13;;;13.82;70.98
27144;BME280;14672;50.250;8.312;2023-02-18T05:57:04;99321.56;;;13.81;71.00
27144;BME280;14672;50.250;8.312;2023-02-18T05:59:30;99320.66;;;13.62;71.58
27144;BME280;14672;50.250;8.312;2023-02-18T06:01:56;99328.69;;;13.76;71.25
27144;BME280;14672;50.250;8.312;2023-02-18T06:04:22;99325.47;;;13.65;71.75
27144;BME280;14672;50.250;8.312;2023-02-18T06:06:47;99325.13;;;13.63;71.89
27144;BME280;14672;50.250;8.312;2023-02-18T06:09:13;99320.34;;;13.60;71.38
27144;BME280;14672;50.250;8.312;2023-02-18T06:11:39;99322.78;;;13.71;70.90
27144;BME280;14672;50.250;8.312;2023-02-18T06:14:05;99321.25;;;13.48;71.66
27144;BME280;14672;50.250;8.312;2023-02-18T06:16:31;99325.13;;;13.63;71.11
27144;BME280;14672;50.250;8.312;2023-02-18T06:18:57;99317.19;;;13.67;70.90
27144;BME280;14672;50.250;8.312;2023-02-18T06:21:23;99310.41;;;13.74;70.68
27144;BME280;14672;50.250;8.312;2023-02-18T06:23:49;99315.44;;;13.60;71.40
27144;BME280;14672;50.250;8.312;2023-02-18T06:26:15;99326.13;;;13.69;70.97
27144;BME280;14672;50.250;8.312;2023-02-18T06:28:40;99329.56;;;13.64;70.88
27144;BME280;14672;50.250;8.312;2023-02-18T06:31:06;99335.34;;;13.73;70.43
27144;BME280;14672;50.250;8.312;2023-02-18T06:33:32;99337.38;;;13.73;70.67
27144;BME280;14672;50.250;8.312;2023-02-18T06:36:04;99336.53;;;13.63;71.10
27144;BME280;14672;50.250;8.312;2023-02-18T06:38:34;99332.34;;;13.77;70.51
27144;BME280;14672;50.250;8.312;2023-02-18T06:41:00;99329.13;;;13.75;70.48
27144;BME280;14672;50.250;8.312;2023-02-18T06:43:26;99327.22;;;13.72;70.50
27144;BME280;14672;50.250;8.312;2023-02-18T06:45:52;99332.97;;;13.81;69.75
27144;BME280;14672;50.250;8.312;2023-02-18T06:48:18;99328.13;;;13.59;70.07
27144;BME280;14672;50.250;8.312;2023-02-18T06:50:44;99335.34;;;13.73;69.92
27144;BME280;14672;50.250;8.312;2023-02-18T06:53:11;99333.38;;;13.70;69.56
27144;BME280;14672;50.250;8.312;2023-02-18T06:55:37;99319.34;;;13.54;70.09
27144;BME280;14672;50.250;8.312;2023-02-18T06:58:04;99318.75;;;13.59;70.12
27144;BME280;14672;50.250;8.312;2023-02-18T07:00:30;99323.56;;;13.71;69.65
27144;BME280;14672;50.250;8.312;2023-02-18T07:02:56;99323.91;;;13.73;69.59
27144;BME280;14672;50.250;8.312;2023-02-18T07:05:21;99323.06;;;13.63;69.11
27144;BME280;14672;50.250;8.312;2023-02-18T07:07:48;99328.78;;;13.63;68.83
27144;BME280;14672;50.250;8.312;2023-02-18T07:10:14;99317.34;;;13.63;68.47
27144;BME280;14672;50.250;8.312;2023-02-18T07:12:40;99317.41;;;13.73;68.42
27144;BME280;14672;50.250;8.312;2023-02-18T07:15:06;99329.38;;;13.58;69.02
27144;BME280;14672;50.250;8.312;2023-02-18T07:17:32;99321.00;;;13.64;68.17
27144;BME280;14672;50.250;8.312;2023-02-18T07:19:58;99337.34;;;13.63;67.82
27144;BME280;14672;50.250;8.312;2023-02-18T07:22:25;99331.34;;;13.71;67.17
27144;BME280;14672;50.250;8.312;2023-02-18T07:24:54;99325.03;;;13.76;67.01
27144;BME280;14672;50.250;8.312;2023-02-18T07:27:21;99326.13;;;13.69;67.21
27144;BME280;14672;50.250;8.312;2023-02-18T07:29:47;99325.16;;;13.72;66.40
27144;BME280;14672;50.250;8.312;2023-02-18T07:32:15;99325.72;;;13.58;66.72
27144;BME280;14672;50.250;8.312;2023-02-18T07:34:41;99319.44;;;13.72;66.02
27144;BME280;14672;50.250;8.312;2023-02-18T07:37:07;99318.44;;;13.57;65.98
27144;BME280;14672;50.250;8.312;2023-02-18T07:39:43;99320.06;;;13.67;65.73
27144;BME280;14672;50.250;8.312;2023-02-18T07:42:13;99331.94;;;13.65;65.72
27144;BME280;14672;50.250;8.312;2023-02-18T07:44:39;99328.25;;;13.56;66.07
27144;BME280;14672;50.250;8.312;2023-02-18T07:47:08;99332.41;;;13.64;65.68
27144;BME280;14672;50.250;8.312;2023-02-18T07:49:35;99325.56;;;13.61;66.25
27144;BME280;14672;50.250;8.312;2023-02-18T07:52:00;99310.13;;;13.50;66.48
27144;BME280;14672;50.250;8.312;2023-02-18T07:54:26;99321.28;;;13.57;66.25
27144;BME280;14672;50.250;8.312;2023-02-18T07:56:53;99302.56;;;13.56;66.39
27144;BME280;14672;50.250;8.312;2023-02-18T07:59:22;99294.00;;;13.56;65.73
27144;BME280;14672;50.250;8.312;2023-02-18T08:01:48;99290.53;;;13.61;65.01
27144;BME280;14672;50.250;8.312;2023-02-18T08:04:13;99303.38;;;13.65;64.98
27144;BME280;14672;50.250;8.312;2023-02-18T08:06:43;99310.47;;;13.52;65.15
27144;BME280;14672;50.250;8.312;2023-02-18T08:09:11;99307.16;;;13.53;64.32
27144;BME280;14672;50.250;8.312;2023-02-18T08:11:38;99303.03;;;13.54;63.77
27144;BME280;14672;50.250;8.312;2023-02-18T08:14:04;99313.84;;;13.59;63.60
27144;BME280;14672;50.250;8.312;2023-02-18T08:16:30;99325.91;;;13.63;63.61
27144;BME280;14672;50.250;8.312;2023-02-18T08:18:57;99328.25;;;13.56;62.70
27144;BME280;14672;50.250;8.312;2023-02-18T08:21:24;99330.50;;;13.61;62.52
27144;BME280;14672;50.250;8.312;2023-02-18T08:23:51;99335.50;;;13.48;62.74
27144;BME280;14672;50.250;8.312;2023-02-18T08:26:17;99342.81;;;13.49;61.98
27144;BME280;14672;50.250;8.312;2023-02-18T08:28:44;99336.59;;;13.41;62.03
27144;BME280;14672;50.250;8.312;2023-02-18T08:31:27;99349.50;;;13.55;61.61
27144;BME280;14672;50.250;8.312;2023-02-18T08:33:54;99339.69;;;13.56;61.25
27144;BME280;14672;50.250;8.312;2023-02-18T08:36:21;99342.84;;;13.58;61.36
27144;BME280;14672;50.250;8.312;2023-02-18T08:38:48;99341.81;;;13.43;61.35
27144;BME280;14672;50.250;8.312;2023-02-18T08:41:15;99353.81;;;13.59;60.77
27144;BME280;14672;50.250;8.312;2023-02-18T08:43:43;99344.16;;;13.66;60.81
27144;BME280;14672;50.250;8.312;2023-02-18T08:46:10;99333.38;;;13.70;60.80
27144;BME280;14672;50.250;8.312;2023-02-18T08:48:36;99331.34;;;13.71;61.04
27144;BME280;14672;50.250;8.312;2023-02-18T08:51:19;99335.44;;;13.60;61.09
27144;BME280;14672;50.250;8.312;2023-02-18T08:53:46;99345.09;;;13.63;60.77
27144;BME280;14672;50.250;8.312;2023-02-18T08:56:13;99328.78;;;13.63;60.75
27144;BME280;14672;50.250;8.312;2023-02-18T08:58:40;99329.19;;;13.53;61.03
27144;BME280;14672;50.250;8.312;2023-02-18T09:01:09;99352.13;;;13.71;61.05
27144;BME280;14672;50.250;8.312;2023-02-18T09:03:36;99332.09;;;13.62;60.75
27144;BME280;14672;50.250;8.312;2023-02-18T09:06:03;99332.56;;;13.60;61.44
27144;BME280;14672;50.250;8.312;2023-02-18T09:08:29;99320.66;;;13.62;60.53
27144;BME280;14672;50.250;8.312;2023-02-18T09:11:01;99332.13;;;13.71;60.72
27144;BME280;14672;50.250;8.312;2023-02-18T09:13:29;99333.03;;;13.59;59.78
27144;BME280;14672;50.250;8.312;2023-02-18T09:16:01;99342.31;;;13.72;59.98
27144;BME280;14672;50.250;8.312;2023-02-18T09:18:30;99346.34;;;13.31;59.99
27144;BME280;14672;50.250;8.312;2023-02-18T09:20:58;99330.59;;;13.48;59.84
27144;BME280;14672;50.250;8.312;2023-02-18T09:23:26;99317.63;;;13.56;59.77
27144;BME280;14672;50.250;8.312;2023-02-18T09:25:53;99325.69;;;13.49;59.68
27144;BME280;14672;50.250;8.312;2023-02-18T09:28:19;99332.72;;;13.57;59.71
27144;BME280;14672;50.250;8.312;2023-02-18T09:30:45;99343.03;;;13.63;59.78
27144;BME280;14672;50.250;8.312;2023-02-18T09:33:11;99326.00;;;13.51;59.49
27144;BME280;14672;50.250;8.312;2023-02-18T09:35:42;99334.13;;;13.61;59.65
27144;BME280;14672;50.250;8.312;2023-02-18T09:38:14;99343.94;;;13.51;59.46
27144;BME280;14672;50.250;8.312;2023-02-18T09:40:50;99349.63;;;13.51;59.49
27144;BME280;14672;50.250;8.312;2023-02-18T09:45:54;99336.88;;;13.65;59.33
27144;BME280;14672;50.250;8.312;2023-02-18T09:48:28;99344.81;;;13.70;59.41
27144;BME280;14672;50.250;8.312;2023-02-18T09:50:56;99348.81;;;13.73;58.96
27144;BME280;14672;50.250;8.312;2023-02-18T09:53:23;99353.66;;;13.63;59.41
27144;BME280;14672;50.250;8.312;2023-02-18T09:55:55;99339.09;;;13.70;59.30
27144;BME280;14672;50.250;8.312;2023-02-18T09:58:26;99343.94;;;13.51;59.34
27144;BME280;14672;50.250;8.312;2023-02-18T10:03:30;99338.31;;;13.70;59.12
27144;BME280;14672;50.250;8.312;2023-02-18T10:05:58;99318.81;;;13.68;59.13
27144;BME280;14672;50.250;8.312;2023-02-18T10:08:44;99318.28;;;13.60;59.24
27144;BME280;14672;50.250;8.312;2023-02-18T10:11:37;99312.59;;;13.60;59.71
27144;BME280;14672;50.250;8.312;2023-02-18T10:14:13;99313.09;;;13.68;59.74
27144;BME280;14672;50.250;8.312;2023-02-18T10:16:40;99309.91;;;13.66;60.10
27144;BME280;14672;50.250;8.312;2023-02-18T10:21:56;99330.47;;;13.52;61.35
27144;BME280;14672;50.250;8.312;2023-02-18T10:24:34;99327.38;;;13.37;62.31
27144;BME280;14672;50.250;8.312;2023-02-18T10:27:06;99313.75;;;13.41;62.02
27144;BME280;14672;50.250;8.312;2023-02-18T10:29:33;99321.25;;;13.26;62.27
27144;BME280;14672;50.250;8.312;2023-02-18T10:35:12;99311.03;;;13.38;62.00
27144;BME280;14672;50.250;8.312;2023-02-18T10:39:07;99339.72;;;13.65;62.00
27144;BME280;14672;50.250;8.312;2023-02-18T10:52:16;99321.66;;;13.37;64.73
27144;BME280;14672;50.250;8.312;2023-02-18T10:57:25;99305.72;;;13.49;64.03
27144;BME280;14672;50.250;8.312;2023-02-18T11:00:02;99307.84;;;13.36;64.60
27144;BME280;14672;50.250;8.312;2023-02-18T11:02:36;99304.94;;;13.27;64.65
27144;BME280;14672;50.250;8.312;2023-02-18T11:05:22;99304.78;;;13.52;64.20
27144;BME280;14672;50.250;8.312;2023-02-18T11:07:55;99290.94;;;13.41;62.51
27144;BME280;14672;50.250;8.312;2023-02-18T11:10:28;99300.00;;;13.49;62.11
27144;BME280;14672;50.250;8.312;2023-02-18T11:13:05;99290.69;;;13.57;62.23
27144;BME280;14672;50.250;8.312;2023-02-18T11:15:32;99285.19;;;13.72;61.66
27144;BME280;14672;50.250;8.312;2023-02-18T11:18:25;99288.44;;;13.52;61.24
27144;BME280;14672;50.250;8.312;2023-02-18T11:21:02;99279.06;;;13.52;60.25
27144;BME280;14672;50.250;8.312;2023-02-18T11:23:28;99278.19;;;13.64;60.51
27144;BME280;14672;50.250;8.312;2023-02-18T11:26:05;99272.38;;;13.77;60.26
27144;BME280;14672;50.250;8.312;2023-02-18T11:31:08;99264.81;;;13.52;60.05
27144;BME280;14672;50.250;8.312;2023-02-18T11:33:44;99264.84;;;13.61;59.80
27144;BME280;14672;50.250;8.312;2023-02-18T11:36:29;99273.06;;;13.59;59.96
27144;BME280;14672;50.250;8.312;2023-02-18T11:39:05;99259.09;;;13.52;59.97
27144;BME280;14672;50.250;8.312;2023-02-18T11:41:43;99245.47;;;13.56;59.94
27144;BME280;14672;50.250;8.312;2023-02-18T11:49:38;99251.66;;;13.54;59.89
27144;BME280;14672;50.250;8.312;2023-02-18T11:55:15;99223.69;;;13.40;60.54
27144;BME280;14672;50.250;8.312;2023-02-18T11:58:00;99218.41;;;13.79;60.09
27144;BME280;14672;50.250;8.312;2023-02-18T12:00:47;99225.38;;;13.78;59.72
27144;BME280;14672;50.250;8.312;2023-02-18T12:03:49;99237.28;;;13.76;59.92
27144;BME280;14672;50.250;8.312;2023-02-18T12:06:33;99224.53;;;13.59;60.66
27144;BME280;14672;50.250;8.312;2023-02-18T12:12:00;99209.53;;;13.77;59.97
27144;BME280;14672;50.250;8.312;2023-02-18T12:14:28;99215.56;;;13.79;60.09
27144;BME280;14672;50.250;8.312;2023-02-18T12:23:37;99223.47;;;13.75;60.29
27144;BME280;14672;50.250;8.312;2023-02-18T12:44:33;99230.88;;;13.54;63.28
27144;BME280;14672;50.250;8.312;2023-02-18T12:50:02;99240.97;;;13.37;64.22
27144;BME280;14672;50.250;8.312;2023-02-18T13:07:38;99250.44;;;13.64;64.33
27144;BME280;14672;50.250;8.312;2023-02-18T13:13:12;99247.56;;;13.64;64.53
27144;BME280;14672;50.250;8.312;2023-02-18T13:15:58;99242.63;;;13.56;64.33
27144;BME280;14672;50.250;8.312;2023-02-18T13:18:46;99240.56;;;13.65;64.71
27144;BME280;14672;50.250;8.312;2023-02-18T13:21:16;99229.81;;;13.70;64.81
27144;BME280;14672;50.250;8.312;2023-02-18T13:23:59;99236.16;;;13.74;64.42
27144;BME280;14672;50.250;8.312;2023-02-18T13:26:29;99228.44;;;13.92;64.36
27144;BME280;14672;50.250;8.312;2023-02-18T13:29:31;99236.31;;;13.70;65.04
27144;BME280;14672;50.250;8.312;2023-02-18T13:32:32;99236.94;;;13.65;65.83
27144;BME280;14672;50.250;8.312;2023-02-18T13:35:23;99231.41;;;13.71;65.31
27144;BME280;14672;50.250;8.312;2023-02-18T13:40:49;99238.81;;;13.59;65.41
27144;BME280;14672;50.250;8.312;2023-02-18T13:43:33;99236.69;;;13.81;65.57
27144;BME280;14672;50.250;8.312;2023-02-18T13:46:16;99240.75;;;13.71;65.89
27144;BME280;14672;50.250;8.312;2023-02-18T13:51:49;99231.75;;;13.82;66.03
27144;BME280;14672;50.250;8.312;2023-02-18T13:54:39;99238.56;;;13.75;65.75
27144;BME280;14672;50.250;8.312;2023-02-18T13:57:18;99240.88;;;13.58;65.91
27144;BME280;14672;50.250;8.312;2023-02-18T13:59:56;99239.34;;;13.76;65.61
27144;BME280;14672;50.250;8.312;2023-02-18T14:05:13;99227.13;;;13.75;65.68
27144;BME280;14672;50.250;8.312;2023-02-18T14:08:14;99244.88;;;13.70;65.65
27144;BME280;14672;50.250;8.312;2023-02-18T14:10:40;99236.56;;;13.45;66.91
27144;BME280;14672;50.250;8.312;2023-02-18T14:13:36;99228.66;;;13.58;66.40
27144;BME280;14672;50.250;8.312;2023-02-18T14:16:05;99228.81;;;13.54;67.03
27144;BME280;14672;50.250;8.312;2023-02-18T14:18:32;99228.50;;;13.52;66.33
27144;BME280;14672;50.250;8.312;2023-02-18T14:26:30;99228.38;;;13.65;66.68
27144;BME280;14672;50.250;8.312;2023-02-18T14:29:29;99238.38;;;13.70;66.20
27144;BME280;14672;50.250;8.312;2023-02-18T14:32:02;99210.59;;;13.61;65.92
27144;BME280;14672;50.250;8.312;2023-02-18T14:38:31;99224.84;;;13.52;65.93
27144;BME280;14672;50.250;8.312;2023-02-18T14:41:40;99214.75;;;13.78;65.88
27144;BME280;14672;50.250;8.312;2023-02-18T14:47:48;99220.47;;;13.78;65.58
27144;BME280;14672;50.250;8.312;2023-02-18T14:50:20;99231.25;;;13.74;65.14
27144;BME280;14672;50.250;8.312;2023-02-18T14:52:58;99223.44;;;13.56;66.25
27144;BME280;14672;50.250;8.312;2023-02-18T14:55:41;99228.00;;;13.54;65.83
27144;BME280;14672;50.250;8.312;2023-02-18T14:58:35;99212.13;;;13.44;66.07
27144;BME280;14672;50.250;8.312;2023-02-18T15:01:30;99223.31;;;13.69;65.40
27144;BME280;14672;50.250;8.312;2023-02-18T15:03:57;99223.44;;;13.56;65.49
27144;BME280;14672;50.250;8.312;2023-02-18T15:06:34;99219.53;;;13.72;65.09
27144;BME280;14672;50.250;8.312;2023-02-18T15:12:03;99214.44;;;13.76;65.23
27144;BME280;14672;50.250;8.312;2023-02-18T15:14:37;99222.84;;;13.71;65.27
27144;BME280;14672;50.250;8.312;2023-02-18T15:17:07;99213.28;;;13.55;65.23
27144;BME280;14672;50.250;8.312;2023-02-18T15:19:42;99222.94;;;13.58;64.85
27144;BME280;14672;50.250;8.312;2023-02-18T15:22:22;99216.63;;;13.63;65.22
27144;BME280;14672;50.250;8.312;2023-02-18T15:24:51;99219.75;;;13.47;65.31
27144;BME280;14672;50.250;8.312;2023-02-18T15:27:27;99213.38;;;13.43;65.64
27144;BME280;14672;50.250;8.312;2023-02-18T15:30:09;99216.47;;;13.57;65.20
27144;BME280;14672;50.250;8.312;2023-02-18T15:32:38;99214.88;;;13.65;64.60
27144;BME280;14672;50.250;8.312;2023-02-18T15:35:16;99218.53;;;13.66;64.95
27144;BME280;14672;50.250;8.312;2023-02-18T15:37:51;99219.97;;;13.71;64.63
27144;BME280;14672;50.250;8.312;2023-02-18T15:40:18;99218.84;;;13.59;64.95
27144;BME280;14672;50.250;8.312;2023-02-18T15:42:51;99210.75;;;13.67;64.38
27144;BME280;14672;50.250;8.312;2023-02-18T15:45:24;99214.56;;;13.63;64.51
27144;BME280;14672;50.250;8.312;2023-02-18T15:47:56;99215.38;;;13.64;64.48
27144;BME280;14672;50.250;8.312;2023-02-18T15:50:36;99217.00;;;13.83;64.01
27144;BME280;14672;50.250;8.312;2023-02-18T15:53:14;99212.81;;;13.57;64.77